Time;durP1;ratioP1;P1;durP2;ratioP2;P2;SDS_P1;SDS_P2;PMS_P1;PMS_P2;Temp;Humidity;BMP_temperature;BMP_pressure;BME280_temperature;BME280_humidity;BME280_pressure;Samples;Min_cycle;Max_cycle;Signal;HPM_P1;HPM_P2
2022/06/11 00:01:23;;;;;;;0.30;0.30;;;11.50;99.90;;;;;;5115077;28;20587;-68
2022/06/11 00:03:52;;;;;;;0.30;0.30;;;11.50;99.90;;;;;;5114471;28;20605;-69
2022/06/11 00:06:17;;;;;;;0.50;0.50;;;11.50;99.90;;;;;;5114732;28;20254;-70
2022/06/11 00:08:43;;;;;;;0.30;0.30;;;11.40;99.90;;;;;;5114581;28;20247;-70
2022/06/11 00:11:10;;;;;;;0.40;0.40;;;11.40;99.90;;;;;;5114534;28;20488;-69
2022/06/11 00:13:37;;;;;;;0.30;0.30;;;11.40;99.90;;;;;;5114369;28;20462;-67
2022/06/11 00:16:04;;;;;;;0.30;0.30;;;11.50;99.90;;;;;;5114648;28;20621;-69
2022/06/11 00:18:31;;;;;;;0.30;0.30;;;11.50;99.90;;;;;;5114541;28;20160;-68
2022/06/11 00:20:56;;;;;;;0.30;0.30;;;11.60;99.90;;;;;;5113086;28;20255;-69
2022/06/11 00:23:22;;;;;;;0.40;0.40;;;11.60;99.90;;;;;;5114010;28;20287;-68
2022/06/11 00:25:48;;;;;;;0.30;0.30;;;11.60;99.90;;;;;;5114358;28;20176;-70
2022/06/11 00:28:15;;;;;;;0.30;0.30;;;11.60;99.90;;;;;;5114568;28;20183;-69
2022/06/11 00:30:40;;;;;;;0.30;0.30;;;11.60;99.90;;;;;;5114150;28;20642;-68
2022/06/11 00:33:06;;;;;;;0.30;0.30;;;11.50;99.90;;;;;;5113988;28;20201;-69
2022/06/11 00:35:39;;;;;;;0.30;0.30;;;11.60;99.90;;;;;;5114376;28;20175;-70
2022/06/11 00:38:06;;;;;;;0.30;0.30;;;11.60;99.90;;;;;;5114150;28;20214;-68
2022/06/11 00:40:34;;;;;;;0.30;0.30;;;11.50;99.90;;;;;;5114221;28;20232;-69
2022/06/11 00:43:00;;;;;;;0.30;0.30;;;11.50;99.90;;;;;;5113866;28;20677;-68
2022/06/11 00:45:46;;;;;;;0.30;0.30;;;11.40;99.90;;;;;;5114260;28;20651;-68
2022/06/11 00:48:18;;;;;;;0.30;0.30;;;11.40;99.90;;;;;;5114299;28;20203;-68
2022/06/11 00:50:54;;;;;;;0.30;0.30;;;11.30;99.90;;;;;;5114289;28;20620;-69
2022/06/11 00:53:46;;;;;;;0.30;0.30;;;11.30;99.90;;;;;;5113781;28;20187;-69
2022/06/11 00:56:18;;;;;;;0.30;0.30;;;11.30;99.90;;;;;;5114148;28;20176;-69
2022/06/11 00:58:46;;;;;;;0.30;0.30;;;11.40;99.90;;;;;;5113959;28;20179;-69
2022/06/11 01:01:13;;;;;;;0.30;0.30;;;11.50;99.90;;;;;;5116419;28;20199;-69
2022/06/11 01:03:43;;;;;;;0.30;0.30;;;11.40;99.90;;;;;;5118036;27;20253;-67
2022/06/11 01:06:15;;;;;;;0.30;0.30;;;11.40;99.90;;;;;;5118315;28;20533;-69
2022/06/11 01:08:58;;;;;;;0.30;0.30;;;11.40;99.90;;;;;;5118259;28;20168;-69
2022/06/11 01:11:35;;;;;;;0.30;0.30;;;11.30;99.90;;;;;;5117908;28;20230;-69
2022/06/11 01:14:09;;;;;;;0.30;0.30;;;11.30;99.90;;;;;;5117820;28;20270;-69
2022/06/11 01:17:07;;;;;;;0.30;0.30;;;11.20;99.90;;;;;;5117912;28;20183;-68
2022/06/11 01:19:55;;;;;;;0.30;0.30;;;11.20;99.90;;;;;;5094623;27;20223;-69
2022/06/11 01:22:58;;;;;;;0.30;0.30;;;11.30;99.90;;;;;;5117764;28;20230;-68
2022/06/11 01:25:23;;;;;;;0.30;0.30;;;11.40;99.90;;;;;;5117683;28;20168;-68
2022/06/11 01:28:23;;;;;;;0.30;0.30;;;11.40;99.90;;;;;;5117741;28;20247;-69
2022/06/11 01:30:52;;;;;;;0.30;0.30;;;11.40;99.90;;;;;;5117554;28;20196;-69
2022/06/11 01:33:38;;;;;;;0.52;0.52;;;11.30;99.90;;;;;;5117372;28;20180;-69
2022/06/11 01:36:26;;;;;;;0.30;0.30;;;11.40;99.90;;;;;;5116268;28;20632;-68
2022/06/11 01:39:11;;;;;;;0.30;0.30;;;11.30;99.90;;;;;;5117680;28;20172;-68
2022/06/11 01:42:12;;;;;;;0.30;0.30;;;11.40;99.90;;;;;;5117001;28;20273;-68
2022/06/11 01:44:41;;;;;;;0.30;0.30;;;11.40;99.90;;;;;;5117458;28;20394;-69
2022/06/11 01:47:07;;;;;;;0.40;0.40;;;11.30;99.90;;;;;;5117429;28;20184;-68
2022/06/11 01:49:38;;;;;;;0.40;0.40;;;11.20;99.90;;;;;;5117490;28;20183;-68
2022/06/11 01:52:32;;;;;;;0.77;0.77;;;11.20;99.90;;;;;;5116992;28;20260;-68
2022/06/11 01:55:17;;;;;;;0.30;0.30;;;11.20;99.90;;;;;;5117287;28;20164;-68
2022/06/11 01:58:06;;;;;;;0.30;0.30;;;11.20;99.90;;;;;;5117192;28;20251;-68
2022/06/11 02:00:43;;;;;;;0.30;0.30;;;11.20;99.90;;;;;;5110257;28;20214;-70
2022/06/11 02:03:24;;;;;;;0.30;0.30;;;11.20;99.90;;;;;;5116955;27;20199;-68
2022/06/11 02:06:33;;;;;;;0.40;0.40;;;11.10;99.90;;;;;;5117072;28;20168;-68
2022/06/11 02:09:23;;;;;;;0.30;0.30;;;10.90;99.90;;;;;;5074230;28;20180;-69
2022/06/11 02:12:02;;;;;;;0.30;0.30;;;11.10;99.90;;;;;;5114371;27;20239;-67
2022/06/11 02:14:39;;;;;;;0.30;0.30;;;11.10;99.90;;;;;;5117037;28;20168;-68
2022/06/11 02:17:18;;;;;;;0.30;0.30;;;11.20;99.90;;;;;;5116935;28;20160;-69
2022/06/11 02:19:52;;;;;;;0.30;0.30;;;11.20;99.90;;;;;;5116943;28;20191;-69
2022/06/11 02:22:25;;;;;;;0.30;0.30;;;11.20;99.90;;;;;;5116491;28;20721;-69
2022/06/11 02:25:01;;;;;;;0.30;0.30;;;11.20;99.90;;;;;;5116842;28;20193;-68
2022/06/11 02:27:29;;;;;;;0.30;0.30;;;11.10;99.90;;;;;;5116722;28;20172;-69
2022/06/11 02:29:56;;;;;;;0.30;0.30;;;11.10;99.90;;;;;;5116333;28;20537;-67
2022/06/11 02:32:26;;;;;;;0.30;0.30;;;11.00;99.90;;;;;;5116269;28;20598;-68
2022/06/11 02:34:55;;;;;;;0.30;0.30;;;11.00;99.90;;;;;;5116331;28;20160;-68
2022/06/11 02:37:33;;;;;;;0.30;0.30;;;11.00;99.90;;;;;;5116138;28;20221;-69
2022/06/11 02:40:05;;;;;;;0.30;0.30;;;11.10;99.90;;;;;;5116381;28;20160;-68
2022/06/11 02:42:31;;;;;;;0.30;0.30;;;11.10;99.90;;;;;;5115914;28;20196;-68
2022/06/11 02:44:57;;;;;;;0.30;0.30;;;11.10;99.90;;;;;;5116179;28;20172;-69
2022/06/11 02:47:23;;;;;;;0.30;0.30;;;11.10;99.90;;;;;;5116491;28;20397;-69
2022/06/11 02:49:50;;;;;;;0.40;0.40;;;11.10;99.90;;;;;;5116275;28;20172;-68
2022/06/11 02:52:19;;;;;;;0.30;0.30;;;11.10;99.90;;;;;;5115880;28;20538;-68
2022/06/11 02:54:47;;;;;;;0.32;0.32;;;11.00;99.90;;;;;;5116169;27;20168;-69
2022/06/11 02:57:16;;;;;;;0.30;0.30;;;11.00;99.90;;;;;;5115931;28;20196;-68
2022/06/11 02:59:43;;;;;;;0.30;0.30;;;11.00;99.90;;;;;;5115962;28;20168;-67
2022/06/11 03:02:10;;;;;;;0.30;0.30;;;11.00;99.90;;;;;;5115739;28;20656;-69
2022/06/11 03:04:36;;;;;;;0.30;0.30;;;11.00;99.90;;;;;;5116005;28;20180;-68
2022/06/11 03:07:03;;;;;;;0.30;0.30;;;11.00;99.90;;;;;;5116463;28;20191;-68
2022/06/11 03:09:32;;;;;;;0.30;0.30;;;11.00;99.90;;;;;;5115692;28;20533;-68
2022/06/11 03:12:00;;;;;;;0.30;0.30;;;11.00;99.90;;;;;;5115533;28;20200;-68
2022/06/11 03:14:26;;;;;;;0.30;0.30;;;10.90;99.90;;;;;;5115658;28;20173;-69
2022/06/11 03:16:52;;;;;;;0.30;0.30;;;10.90;99.90;;;;;;5115698;27;20173;-68
2022/06/11 03:19:21;;;;;;;0.30;0.30;;;10.90;99.90;;;;;;5115695;28;20160;-69
2022/06/11 03:21:55;;;;;;;0.43;0.43;;;10.90;99.90;;;;;;5115641;28;20196;-69
2022/06/11 03:24:23;;;;;;;0.40;0.40;;;10.90;99.90;;;;;;5114821;28;20240;-68
2022/06/11 03:26:49;;;;;;;0.30;0.30;;;10.90;99.90;;;;;;5115619;28;20616;-69
2022/06/11 03:29:15;;;;;;;0.40;0.40;;;10.90;99.90;;;;;;5115567;28;20172;-68
2022/06/11 03:31:43;;;;;;;0.30;0.30;;;10.90;99.90;;;;;;5115350;28;20203;-68
2022/06/11 03:34:09;;;;;;;0.30;0.30;;;10.90;99.90;;;;;;5114897;28;20192;-68
2022/06/11 03:36:34;;;;;;;0.30;0.30;;;10.90;99.90;;;;;;5115070;28;20165;-69
2022/06/11 03:39:00;;;;;;;0.30;0.30;;;10.90;99.90;;;;;;5115246;28;20164;-67
2022/06/11 03:41:26;;;;;;;0.30;0.30;;;10.90;99.90;;;;;;5115302;28;20528;-68
2022/06/11 03:43:52;;;;;;;0.40;0.40;;;11.00;99.90;;;;;;5114910;28;20196;-69
2022/06/11 03:46:18;;;;;;;0.30;0.30;;;11.00;99.90;;;;;;5115163;28;20204;-69
2022/06/11 03:48:45;;;;;;;0.30;0.30;;;11.00;99.90;;;;;;5114976;28;20211;-69
2022/06/11 03:51:11;;;;;;;0.30;0.30;;;11.00;99.90;;;;;;5115061;28;20204;-68
2022/06/11 03:53:37;;;;;;;0.30;0.30;;;11.00;99.90;;;;;;5114679;28;20188;-69
2022/06/11 03:56:05;;;;;;;0.30;0.30;;;11.00;99.90;;;;;;5115024;28;20177;-69
2022/06/11 03:58:33;;;;;;;0.30;0.30;;;11.10;99.90;;;;;;5114743;28;20176;-69
2022/06/11 04:01:16;;;;;;;0.35;0.35;;;11.10;99.90;;;;;;5114790;28;20183;-69
2022/06/11 04:03:55;;;;;;;0.30;0.30;;;11.20;99.90;;;;;;5114468;28;20187;-68
2022/06/11 04:06:25;;;;;;;0.30;0.30;;;11.10;99.90;;;;;;5114623;28;20176;-68
2022/06/11 04:08:51;;;;;;;0.30;0.30;;;11.20;99.90;;;;;;5114902;28;20224;-68
2022/06/11 04:11:17;;;;;;;0.30;0.30;;;11.30;99.90;;;;;;5114615;28;20203;-69
2022/06/11 04:13:44;;;;;;;0.30;0.30;;;11.40;99.90;;;;;;5114283;28;20433;-69
2022/06/11 04:16:29;;;;;;;0.30;0.30;;;11.40;99.90;;;;;;5114457;28;20259;-69
2022/06/11 04:18:59;;;;;;;0.30;0.30;;;11.50;99.90;;;;;;5114536;28;20215;-67
2022/06/11 04:21:25;;;;;;;0.30;0.30;;;11.50;99.90;;;;;;5114356;28;20180;-69
2022/06/11 04:23:54;;;;;;;0.30;0.30;;;11.60;99.90;;;;;;5114196;28;20219;-68
2022/06/11 04:26:28;;;;;;;0.30;0.30;;;12.00;99.90;;;;;;5114377;28;20429;-68
2022/06/11 04:28:55;;;;;;;0.30;0.30;;;12.30;99.90;;;;;;5113002;28;20819;-69
2022/06/11 04:31:21;;;;;;;0.60;0.60;;;12.60;99.90;;;;;;5114185;28;20494;-68
2022/06/11 04:33:47;;;;;;;0.47;0.47;;;13.00;99.90;;;;;;5114080;28;20417;-69
2022/06/11 04:36:14;;;;;;;0.30;0.30;;;13.30;99.90;;;;;;5113616;28;20401;-68
2022/06/11 04:38:40;;;;;;;0.30;0.30;;;13.60;99.90;;;;;;5114324;28;20178;-68
2022/06/11 04:41:07;;;;;;;0.30;0.30;;;13.90;99.90;;;;;;5114012;28;20406;-68
2022/06/11 04:43:34;;;;;;;0.30;0.30;;;14.00;99.90;;;;;;5114077;28;20418;-68
2022/06/11 04:46:00;;;;;;;0.30;0.30;;;14.20;99.90;;;;;;5114242;28;20405;-69
2022/06/11 04:48:26;;;;;;;0.30;0.30;;;14.60;99.90;;;;;;5112849;28;20918;-68
2022/06/11 04:50:52;;;;;;;0.50;0.50;;;15.10;99.80;;;;;;5114041;28;20491;-69
2022/06/11 04:53:18;;;;;;;0.40;0.40;;;15.70;99.40;;;;;;5113729;28;20188;-68
2022/06/11 04:55:45;;;;;;;0.30;0.30;;;16.10;98.50;;;;;;5114332;28;20920;-69
2022/06/11 04:58:11;;;;;;;0.60;0.60;;;16.40;98.10;;;;;;5114132;28;20164;-68
2022/06/11 05:00:37;;;;;;;0.30;0.30;;;16.60;96.90;;;;;;5114479;28;20402;-69
2022/06/11 05:03:03;;;;;;;0.30;0.30;;;16.60;96.20;;;;;;5113598;28;20482;-68
2022/06/11 05:05:29;;;;;;;0.30;0.30;;;16.80;96.80;;;;;;5114031;28;20168;-68
2022/06/11 05:07:56;;;;;;;0.30;0.30;;;16.90;96.60;;;;;;5114033;28;20739;-69
2022/06/11 05:10:24;;;;;;;0.30;0.30;;;16.90;96.50;;;;;;5113668;28;21093;-69
2022/06/11 05:12:51;;;;;;;0.30;0.30;;;16.80;96.00;;;;;;5113757;28;20417;-69
2022/06/11 05:15:17;;;;;;;0.30;0.30;;;16.80;96.00;;;;;;5113857;28;20770;-70
2022/06/11 05:17:43;;;;;;;0.30;0.30;;;16.80;96.20;;;;;;5113964;28;20394;-69
2022/06/11 05:20:10;;;;;;;0.30;0.30;;;17.00;96.10;;;;;;5113947;28;20395;-69
2022/06/11 05:22:37;;;;;;;0.60;0.60;;;17.20;96.10;;;;;;5113362;28;20438;-68
2022/06/11 05:25:04;;;;;;;0.97;0.53;;;17.30;96.50;;;;;;5113664;28;20394;-69
2022/06/11 05:27:30;;;;;;;0.30;0.30;;;17.30;96.10;;;;;;5113676;28;20763;-68
2022/06/11 05:30:15;;;;;;;0.30;0.30;;;17.30;96.10;;;;;;5113583;28;20481;-68
2022/06/11 05:32:42;;;;;;;0.30;0.30;;;17.30;96.50;;;;;;5113474;28;20661;-68
2022/06/11 05:35:12;;;;;;;0.30;0.30;;;17.50;96.30;;;;;;5113672;28;20402;-69
2022/06/11 05:37:37;;;;;;;0.30;0.30;;;17.80;96.60;;;;;;5113796;28;20427;-68
2022/06/11 05:40:05;;;;;;;0.40;0.40;;;18.10;96.00;;;;;;5113555;28;20400;-69
2022/06/11 05:42:31;;;;;;;0.67;0.63;;;18.60;96.10;;;;;;5113250;28;20207;-69
2022/06/11 05:44:57;;;;;;;0.30;0.30;;;19.10;95.20;;;;;;5113636;28;20409;-68
2022/06/11 05:47:25;;;;;;;0.30;0.30;;;19.40;94.50;;;;;;5116187;28;20401;-69
2022/06/11 05:49:55;;;;;;;0.30;0.30;;;19.50;94.00;;;;;;5117420;27;20186;-70
2022/06/11 05:52:29;;;;;;;0.30;0.30;;;19.40;94.10;;;;;;5116973;28;20434;-68
2022/06/11 05:54:56;;;;;;;0.30;0.30;;;19.30;94.00;;;;;;5117410;28;20427;-68
2022/06/11 05:57:24;;;;;;;0.30;0.30;;;19.20;94.00;;;;;;5117349;28;20393;-68
2022/06/11 06:00:01;;;;;;;0.30;0.30;;;19.10;94.50;;;;;;5117492;28;20469;-70
2022/06/11 06:02:27;;;;;;;0.30;0.30;;;19.20;94.20;;;;;;5117472;28;20497;-69
2022/06/11 06:04:54;;;;;;;0.30;0.30;;;19.60;93.30;;;;;;5117005;27;20445;-68
2022/06/11 06:07:20;;;;;;;0.73;0.70;;;20.10;92.50;;;;;;5117004;28;20401;-69
2022/06/11 06:09:45;;;;;;;0.33;0.33;;;20.50;91.50;;;;;;5117006;28;20944;-69
2022/06/11 06:12:11;;;;;;;0.30;0.30;;;20.90;91.00;;;;;;5116653;27;20195;-69
2022/06/11 06:14:37;;;;;;;0.30;0.30;;;21.60;91.40;;;;;;5116919;28;20221;-70
2022/06/11 06:17:03;;;;;;;0.30;0.30;;;22.70;90.10;;;;;;5116989;28;20521;-70
2022/06/11 06:19:28;;;;;;;0.30;0.30;;;24.10;86.50;;;;;;5116889;28;20171;-70
2022/06/11 06:21:54;;;;;;;0.40;0.40;;;25.30;83.30;;;;;;5116559;28;20390;-69
2022/06/11 06:24:20;;;;;;;0.30;0.30;;;26.00;78.50;;;;;;5116435;28;20225;-68
2022/06/11 06:26:46;;;;;;;0.30;0.30;;;26.20;76.50;;;;;;5115270;28;20221;-70
2022/06/11 06:29:11;;;;;;;0.30;0.30;;;26.40;75.10;;;;;;5116559;28;20824;-69
2022/06/11 06:31:37;;;;;;;0.30;0.30;;;26.50;74.80;;;;;;5116779;27;20196;-70
2022/06/11 06:34:03;;;;;;;0.50;0.50;;;26.70;72.20;;;;;;5116173;27;20267;-70
2022/06/11 06:36:31;;;;;;;0.40;0.40;;;27.10;71.60;;;;;;5116473;28;20246;-69
2022/06/11 06:38:56;;;;;;;0.30;0.30;;;27.50;66.70;;;;;;5116429;28;20401;-70
2022/06/11 06:41:22;;;;;;;0.60;0.60;;;27.80;68.00;;;;;;5116444;28;20406;-69
2022/06/11 06:43:49;;;;;;;0.30;0.30;;;28.40;67.70;;;;;;5115925;28;20564;-70
2022/06/11 06:46:16;;;;;;;0.30;0.30;;;29.20;66.20;;;;;;5114886;28;20906;-70
2022/06/11 06:48:43;;;;;;;0.30;0.30;;;30.20;59.40;;;;;;5116195;28;20859;-71
2022/06/11 06:51:09;;;;;;;0.30;0.30;;;31.30;58.10;;;;;;5116087;28;20445;-69
2022/06/11 06:53:39;;;;;;;0.30;0.30;;;32.40;55.30;;;;;;5115930;28;20422;-70
2022/06/11 06:56:05;;;;;;;0.40;0.40;;;33.60;52.70;;;;;;5115962;28;20535;-71
2022/06/11 06:58:31;;;;;;;0.40;0.40;;;34.40;50.60;;;;;;5115242;28;20402;-70
2022/06/11 07:00:57;;;;;;;0.63;0.63;;;35.30;49.20;;;;;;5116509;28;20417;-70
2022/06/11 07:03:22;;;;;;;0.30;0.30;;;36.20;46.50;;;;;;5115804;28;20258;-70
2022/06/11 07:05:49;;;;;;;0.30;0.30;;;36.60;45.20;;;;;;5116052;28;20168;-71
2022/06/11 07:08:15;;;;;;;0.30;0.30;;;36.60;43.60;;;;;;5115856;28;20168;-71
2022/06/11 07:10:46;;;;;;;0.30;0.30;;;36.80;43.30;;;;;;5115844;28;20850;-71
2022/06/11 07:13:12;;;;;;;0.40;0.30;;;37.00;42.20;;;;;;5115445;28;20422;-71
2022/06/11 07:15:37;;;;;;;0.30;0.30;;;37.20;39.10;;;;;;5115572;28;20431;-70
2022/06/11 07:18:19;;;;;;;0.40;0.40;;;37.60;39.40;;;;;;5115942;28;20168;-71
2022/06/11 07:20:47;;;;;;;0.30;0.30;;;38.00;39.70;;;;;;5115849;28;20183;-71
2022/06/11 07:23:17;;;;;;;0.30;0.30;;;38.40;39.00;;;;;;5115075;28;20444;-71
2022/06/11 07:25:44;;;;;;;0.40;0.40;;;38.60;38.10;;;;;;5116055;28;20409;-71
2022/06/11 07:28:20;;;;;;;0.30;0.30;;;38.70;34.80;;;;;;5115398;28;20799;-70
2022/06/11 07:30:45;;;;;;;0.40;0.40;;;38.30;33.60;;;;;;5115470;28;20493;-71
2022/06/11 07:33:16;;;;;;;0.40;0.40;;;38.20;35.10;;;;;;5114984;28;20426;-70
2022/06/11 07:35:43;;;;;;;0.40;0.30;;;38.50;36.40;;;;;;5115427;28;20161;-70
2022/06/11 07:38:11;;;;;;;0.40;0.40;;;39.10;36.40;;;;;;5115270;28;20413;-71
2022/06/11 07:40:38;;;;;;;0.40;0.40;;;39.80;35.50;;;;;;5115070;28;20390;-70
2022/06/11 07:43:06;;;;;;;0.30;0.30;;;40.10;31.10;;;;;;5114935;28;20418;-70
2022/06/11 07:45:33;;;;;;;0.30;0.30;;;40.20;29.20;;;;;;5115176;28;20406;-71
2022/06/11 07:47:58;;;;;;;0.50;0.50;;;40.20;28.70;;;;;;5115007;28;20489;-71
2022/06/11 07:50:29;;;;;;;0.40;0.30;;;40.10;29.30;;;;;;5114992;28;20532;-71
2022/06/11 07:52:54;;;;;;;0.30;0.30;;;39.80;28.70;;;;;;5113354;28;20191;-71
2022/06/11 07:55:21;;;;;;;0.50;0.50;;;39.70;29.50;;;;;;5114875;28;20410;-71
2022/06/11 07:57:46;;;;;;;0.30;0.30;;;40.00;30.10;;;;;;5114860;28;20239;-70
2022/06/11 08:00:17;;;;;;;0.30;0.30;;;40.40;29.00;;;;;;5115043;28;20486;-70
2022/06/11 08:02:43;;;;;;;0.30;0.30;;;40.40;27.80;;;;;;5114585;28;20195;-71
2022/06/11 08:05:08;;;;;;;0.30;0.30;;;40.10;28.00;;;;;;5114573;28;20403;-71
2022/06/11 08:07:34;;;;;;;0.40;0.40;;;40.00;28.40;;;;;;5114698;28;20285;-71
2022/06/11 08:10:02;;;;;;;0.30;0.30;;;40.40;28.60;;;;;;5114323;28;20173;-71
2022/06/11 08:12:27;;;;;;;0.30;0.30;;;40.30;27.10;;;;;;5114359;28;20232;-71
2022/06/11 08:14:56;;;;;;;0.30;0.30;;;39.40;28.70;;;;;;5114457;28;20902;-71
2022/06/11 08:17:26;;;;;;;0.30;0.30;;;39.80;29.20;;;;;;5114630;28;20309;-71
2022/06/11 08:19:52;;;;;;;0.40;0.40;;;40.40;27.40;;;;;;5114506;28;20414;-71
2022/06/11 08:22:19;;;;;;;0.40;0.30;;;40.50;28.60;;;;;;5114123;28;20453;-70
2022/06/11 08:24:46;;;;;;;0.30;0.30;;;40.90;28.80;;;;;;5114424;28;20164;-70
2022/06/11 08:27:11;;;;;;;0.30;0.30;;;39.70;27.00;;;;;;5114666;28;20409;-70
2022/06/11 08:29:37;;;;;;;0.37;0.30;;;39.80;27.90;;;;;;5114280;28;20496;-70
2022/06/11 08:32:05;;;;;;;0.30;0.30;;;37.70;28.90;;;;;;5114052;28;20199;-71
2022/06/11 08:34:31;;;;;;;0.40;0.40;;;38.40;29.40;;;;;;5114304;28;20185;-71
2022/06/11 08:36:57;;;;;;;2.10;2.00;;;39.40;29.00;;;;;;5114072;28;20410;-70
2022/06/11 08:39:22;;;;;;;0.30;0.30;;;39.90;28.70;;;;;;5114028;28;20799;-70
2022/06/11 08:41:48;;;;;;;0.80;0.80;;;38.90;29.10;;;;;;5113989;28;20168;-70
2022/06/11 08:44:15;;;;;;;1.33;1.33;;;39.00;29.70;;;;;;5113855;28;20187;-71
2022/06/11 08:46:44;;;;;;;0.30;0.30;;;38.80;28.00;;;;;;5112867;28;20628;-70
2022/06/11 08:49:12;;;;;;;0.40;0.30;;;37.80;28.40;;;;;;5114230;28;20412;-70
2022/06/11 08:51:58;;;;;;;0.40;0.30;;;36.40;31.80;;;;;;5113833;28;20456;-69
2022/06/11 08:54:28;;;;;;;0.40;0.30;;;35.70;30.40;;;;;;5113927;28;20394;-70
2022/06/11 08:57:23;;;;;;;0.30;0.30;;;33.40;33.70;;;;;;5113765;28;20918;-70
2022/06/11 09:00:11;;;;;;;0.40;0.30;;;31.30;37.10;;;;;;5110215;28;20402;-70
2022/06/11 09:02:58;;;;;;;0.63;0.60;;;30.70;37.40;;;;;;5113683;28;20423;-70
2022/06/11 09:05:45;;;;;;;0.30;0.30;;;31.30;39.40;;;;;;5113978;28;20390;-71
2022/06/11 09:08:36;;;;;;;0.40;0.30;;;33.70;37.30;;;;;;5113887;28;20386;-70
2022/06/11 09:11:19;;;;;;;0.40;0.30;;;35.00;32.60;;;;;;5113877;28;20438;-71
2022/06/11 09:14:09;;;;;;;0.60;0.60;;;35.20;32.30;;;;;;5113458;28;20426;-71
2022/06/11 09:16:41;;;;;;;0.40;0.30;;;34.20;34.60;;;;;;5113834;28;20396;-69
2022/06/11 09:19:15;;;;;;;0.40;0.30;;;34.80;32.70;;;;;;5113968;28;20390;-70
2022/06/11 09:21:50;;;;;;;0.30;0.30;;;35.60;33.40;;;;;;5115457;28;20447;-70
2022/06/11 09:24:34;;;;;;;0.40;0.40;;;35.80;33.20;;;;;;5117654;28;20461;-70
2022/06/11 09:27:15;;;;;;;0.40;0.40;;;35.80;31.50;;;;;;5117666;28;20481;-70
2022/06/11 09:30:02;;;;;;;0.57;0.57;;;36.00;31.90;;;;;;5117865;28;20451;-71
2022/06/11 09:32:37;;;;;;;0.40;0.40;;;35.60;32.30;;;;;;5117542;28;20421;-70
2022/06/11 09:35:25;;;;;;;0.30;0.30;;;35.70;32.40;;;;;;5117789;28;20397;-69
2022/06/11 09:38:02;;;;;;;0.30;0.30;;;35.90;32.70;;;;;;5117427;28;20397;-70
2022/06/11 09:40:41;;;;;;;0.33;0.30;;;35.70;33.40;;;;;;5117660;28;20473;-70
2022/06/11 09:43:18;;;;;;;0.30;0.30;;;35.80;34.80;;;;;;5117545;28;20410;-71
2022/06/11 09:45:49;;;;;;;0.30;0.30;;;36.40;33.90;;;;;;5117400;28;20408;-71
2022/06/11 09:48:41;;;;;;;0.40;0.30;;;36.10;32.20;;;;;;5117510;27;20485;-71
2022/06/11 09:51:11;;;;;;;0.40;0.40;;;35.80;31.60;;;;;;5117399;28;20473;-69
2022/06/11 09:53:49;;;;;;;0.30;0.30;;;35.50;32.20;;;;;;5115748;28;20814;-71
2022/06/11 09:56:15;;;;;;;0.40;0.30;;;35.80;34.10;;;;;;5117404;28;20393;-71
2022/06/11 09:58:55;;;;;;;0.40;0.40;;;34.90;32.50;;;;;;5117004;28;20408;-70
2022/06/11 10:01:31;;;;;;;0.70;0.70;;;33.30;34.90;;;;;;5117256;28;20532;-70
2022/06/11 10:04:10;;;;;;;0.30;0.30;;;31.40;39.80;;;;;;5116611;28;20436;-70
2022/06/11 10:06:48;;;;;;;0.30;0.30;;;31.30;37.40;;;;;;5117105;28;20757;-70
2022/06/11 10:09:19;;;;;;;0.37;0.37;;;30.60;38.50;;;;;;5117159;28;20405;-70
2022/06/11 10:11:48;;;;;;;0.30;0.30;;;31.10;40.00;;;;;;5117034;28;20942;-70
2022/06/11 10:14:38;;;;;;;0.40;0.40;;;31.30;38.10;;;;;;5116739;28;20547;-70
2022/06/11 10:17:38;;;;;;;0.30;0.30;;;30.80;38.20;;;;;;5116994;27;20490;-69
2022/06/11 10:20:26;;;;;;;1.10;1.03;;;29.20;39.30;;;;;;5116971;28;20792;-70
2022/06/11 10:22:54;;;;;;;0.30;0.30;;;27.90;41.90;;;;;;5116529;28;20948;-70
2022/06/11 10:25:35;;;;;;;0.30;0.30;;;27.30;44.90;;;;;;5116642;28;20460;-70
2022/06/11 10:28:36;;;;;;;0.30;0.30;;;26.60;45.70;;;;;;5116711;28;20434;-68
2022/06/11 10:31:11;;;;;;;0.50;0.50;;;26.50;45.30;;;;;;5093867;28;20449;-70
2022/06/11 10:33:55;;;;;;;0.40;0.40;;;26.90;46.00;;;;;;5115201;28;20785;-69
2022/06/11 10:36:32;;;;;;;0.40;0.40;;;27.80;44.30;;;;;;5116430;28;20424;-69
2022/06/11 10:39:11;;;;;;;0.30;0.30;;;28.70;41.60;;;;;;5116539;28;20416;-70
2022/06/11 10:41:53;;;;;;;0.33;0.33;;;29.10;41.10;;;;;;5116299;28;20394;-69
2022/06/11 10:44:21;;;;;;;0.40;0.40;;;28.90;41.10;;;;;;5116081;27;20412;-70
2022/06/11 10:46:47;;;;;;;0.30;0.30;;;28.90;42.10;;;;;;5116318;28;20464;-69
2022/06/11 10:49:18;;;;;;;0.30;0.30;;;29.20;40.80;;;;;;5116307;28;20405;-69
2022/06/11 10:52:00;;;;;;;0.30;0.30;;;29.40;40.50;;;;;;5116174;27;20215;-70
2022/06/11 10:54:26;;;;;;;0.40;0.40;;;29.50;39.40;;;;;;5116068;28;20390;-70
2022/06/11 10:57:04;;;;;;;0.70;0.60;;;29.20;41.00;;;;;;5116216;28;20422;-69
2022/06/11 10:59:39;;;;;;;0.30;0.30;;;28.70;40.80;;;;;;5116104;28;20463;-69
2022/06/11 11:02:25;;;;;;;0.57;0.53;;;28.20;42.20;;;;;;5113783;28;20406;-69
2022/06/11 11:04:56;;;;;;;0.70;0.70;;;27.90;43.20;;;;;;5115762;28;20870;-70
2022/06/11 11:07:24;;;;;;;0.40;0.40;;;27.60;44.80;;;;;;5115051;28;20398;-70
2022/06/11 11:09:50;;;;;;;0.47;0.47;;;27.60;48.30;;;;;;5113919;28;20373;-69
2022/06/11 11:12:37;;;;;;;0.30;0.30;;;27.70;46.70;;;;;;5114156;28;20823;-69
2022/06/11 11:15:16;;;;;;;0.40;0.40;;;27.60;45.30;;;;;;5115021;28;20832;-70
2022/06/11 11:17:53;;;;;;;1.03;1.03;;;27.70;44.20;;;;;;5115178;28;20436;-70
2022/06/11 11:20:40;;;;;;;0.30;0.30;;;27.80;47.10;;;;;;5115050;28;20973;-70
2022/06/11 11:23:09;;;;;;;0.30;0.30;;;27.80;48.00;;;;;;5114734;28;20437;-70
2022/06/11 11:25:38;;;;;;;1.03;1.03;;;27.80;44.40;;;;;;5115434;28;20391;-68
2022/06/11 11:28:06;;;;;;;0.30;0.30;;;27.50;42.90;;;;;;5115527;28;20959;-69
2022/06/11 11:30:38;;;;;;;0.40;0.40;;;27.30;46.40;;;;;;5114032;28;20965;-70
2022/06/11 11:33:27;;;;;;;0.30;0.30;;;27.40;44.80;;;;;;5115039;28;20422;-70
2022/06/11 11:36:02;;;;;;;0.30;0.30;;;27.60;45.00;;;;;;5115249;28;20430;-70
2022/06/11 11:38:28;;;;;;;0.30;0.30;;;27.40;47.00;;;;;;5115650;28;20731;-70
2022/06/11 11:40:59;;;;;;;0.30;0.30;;;26.90;44.40;;;;;;5115350;28;20448;-70
2022/06/11 11:43:41;;;;;;;0.30;0.30;;;26.80;45.70;;;;;;5114844;28;20421;-70
2022/06/11 11:46:14;;;;;;;0.30;0.30;;;26.70;48.90;;;;;;5115127;28;20836;-69
2022/06/11 11:48:55;;;;;;;0.30;0.30;;;26.60;45.60;;;;;;5115271;28;20398;-68
2022/06/11 11:51:35;;;;;;;0.33;0.33;;;26.50;47.40;;;;;;5115000;28;20442;-69
2022/06/11 11:54:11;;;;;;;0.30;0.30;;;26.70;48.90;;;;;;5114854;28;20406;-70
2022/06/11 11:56:48;;;;;;;0.30;0.30;;;26.80;48.80;;;;;;5114892;27;20386;-70
2022/06/11 11:59:16;;;;;;;0.40;0.40;;;26.90;48.20;;;;;;5114835;28;20406;-69
2022/06/11 12:01:44;;;;;;;0.60;0.60;;;26.90;45.60;;;;;;5114853;28;20437;-69
2022/06/11 12:04:24;;;;;;;0.30;0.30;;;27.00;45.90;;;;;;5114632;28;20451;-70
2022/06/11 12:06:54;;;;;;;0.30;0.30;;;27.00;45.00;;;;;;5114850;28;20635;-68
2022/06/11 12:09:37;;;;;;;0.30;0.30;;;27.10;46.20;;;;;;5114881;28;20710;-69
2022/06/11 12:12:12;;;;;;;0.30;0.30;;;27.10;45.80;;;;;;5114511;28;20802;-69
2022/06/11 12:14:47;;;;;;;0.80;0.80;;;26.80;47.70;;;;;;5114701;28;20492;-70
2022/06/11 12:17:40;;;;;;;0.50;0.50;;;26.80;48.90;;;;;;5114366;28;20458;-69
2022/06/11 12:20:23;;;;;;;0.30;0.30;;;27.00;45.80;;;;;;5114491;28;20505;-70
2022/06/11 12:23:11;;;;;;;0.40;0.40;;;26.80;45.10;;;;;;5114089;28;20465;-70
2022/06/11 12:26:00;;;;;;;0.30;0.30;;;26.40;45.90;;;;;;5114512;28;20390;-69
2022/06/11 12:28:57;;;;;;;0.30;0.30;;;26.00;48.40;;;;;;5108588;28;20395;-69
2022/06/11 12:31:25;;;;;;;0.40;0.40;;;25.40;56.30;;;;;;5113817;28;20515;-69
2022/06/11 12:33:52;;;;;;;0.30;0.30;;;25.40;52.20;;;;;;5113936;28;20793;-69
2022/06/11 12:36:55;;;;;;;0.30;0.30;;;25.50;50.20;;;;;;5114227;28;20795;-70
2022/06/11 12:40:00;;;;;;;0.30;0.30;;;25.70;50.90;;;;;;5114326;28;20416;-68
2022/06/11 12:42:40;;;;;;;1.03;0.90;;;26.00;51.30;;;;;;5113872;28;20395;-68
2022/06/11 12:45:32;;;;;;;0.30;0.30;;;26.10;49.80;;;;;;5114381;28;20474;-68
2022/06/11 12:48:22;;;;;;;0.30;0.30;;;26.00;51.90;;;;;;5114230;28;20430;-68
2022/06/11 12:50:58;;;;;;;0.30;0.30;;;25.80;49.90;;;;;;5114421;28;20484;-69
2022/06/11 12:53:48;;;;;;;0.40;0.40;;;25.60;54.50;;;;;;5114067;28;20384;-69
2022/06/11 12:56:48;;;;;;;0.30;0.30;;;25.50;48.70;;;;;;5113617;28;20398;-70
2022/06/11 12:59:21;;;;;;;0.30;0.30;;;25.50;48.80;;;;;;5114175;28;20411;-69
2022/06/11 13:02:02;;;;;;;0.70;0.70;;;25.50;49.90;;;;;;5114026;28;20379;-69
2022/06/11 13:05:21;;;;;;;0.60;0.60;;;25.60;49.10;;;;;;5114036;28;20929;-69
2022/06/11 13:07:58;;;;;;;0.30;0.30;;;25.60;48.60;;;;;;5071269;28;20374;-70
2022/06/11 13:10:46;;;;;;;0.40;0.40;;;25.60;49.70;;;;;;5113847;28;20537;-70
2022/06/11 13:13:17;;;;;;;0.30;0.30;;;25.40;49.90;;;;;;5113720;28;20502;-69
2022/06/11 13:16:31;;;;;;;0.30;0.30;;;25.40;51.90;;;;;;5113929;28;20397;-68
2022/06/11 13:19:14;;;;;;;0.50;0.50;;;25.30;49.70;;;;;;5071257;28;20429;-69